Time;durP1;ratioP1;P1;durP2;ratioP2;P2;SDS_P1;SDS_P2;PMS_P1;PMS_P2;Temp;Humidity;BMP_temperature;BMP_pressure;BME280_temperature;BME280_humidity;BME280_pressure;Samples;Min_cycle;Max_cycle;Signal;HPM_P1;HPM_P2
2021/01/05 00:00:44;45229.00;0.15;78.93;0.00;0.00;0.62;;;;;6.10;1.00;;;;;;2276453;61;1212;-85
2021/01/05 00:03:22;119828.00;0.40;207.79;0.00;0.00;0.62;;;;;6.70;1.00;;;;;;2266384;61;993;-86
2021/01/05 00:06:05;88153.00;0.29;153.12;0.00;0.00;0.62;;;;;6.90;1.00;;;;;;2276550;61;1470;-85
2021/01/05 00:08:49;19114.00;0.06;33.74;0.00;0.00;0.62;;;;;7.30;1.00;;;;;;2276499;61;1064;-86
2021/01/05 00:11:30;80855.00;0.27;140.51;0.00;0.00;0.62;;;;;7.70;1.00;;;;;;2269051;61;1993;-84
2021/01/05 00:14:00;24077.00;0.08;42.33;0.00;0.00;0.62;;;;;7.20;1.00;;;;;;2269057;61;1131;-86
2021/01/05 00:16:29;82366.00;0.27;143.12;0.00;0.00;0.62;;;;;7.00;1.00;;;;;;2272322;61;1401;-83
2021/01/05 00:19:08;40303.00;0.13;70.41;0.00;0.00;0.62;;;;;6.40;1.00;;;;;;2272391;61;984;-85
2021/01/05 00:21:41;34504.00;0.12;60.38;0.00;0.00;0.62;;;;;6.20;1.00;;;;;;2275784;61;937;-85
2021/01/05 00:24:29;142125.00;0.47;246.23;0.00;0.00;0.62;;;;;5.80;1.00;;;;;;2272347;61;955;-86
2021/01/05 00:26:58;176777.00;0.59;305.94;0.00;0.00;0.62;;;;;5.60;1.00;;;;;;2269042;61;1350;-86
2021/01/05 00:29:29;142474.00;0.47;246.84;0.00;0.00;0.62;;;;;5.40;1.00;;;;;;2272374;61;1055;-85
2021/01/05 00:32:11;1331.00;0.00;2.93;0.00;0.00;0.62;;;;;5.70;1.00;;;;;;2272364;61;2008;-86
2021/01/05 00:34:55;;;;;;;;;;;;;;;;;;;;;
2021/01/05 00:37:33;25758.00;0.09;45.24;0.00;0.00;0.62;;;;;6.70;1.00;;;;;;2269082;61;1160;-86
2021/01/05 00:40:07;19006.00;0.06;33.55;0.00;0.00;0.62;;;;;7.00;1.00;;;;;;2272369;61;1028;-86
2021/01/05 00:42:42;86971.00;0.29;151.08;0.00;0.00;0.62;;;;;7.40;1.00;;;;;;2272449;61;1093;-85
2021/01/05 00:45:29;112602.00;0.38;195.32;0.00;0.00;0.62;;;;;7.90;1.00;;;;;;2273436;61;1470;-86
2021/01/05 00:48:07;35930.00;0.12;62.85;0.00;0.00;0.62;;;;;8.60;1.00;;;;;;2272936;61;1078;-84
2021/01/05 00:50:39;165706.00;0.55;286.87;0.00;0.00;0.62;;;;;8.70;1.00;;;;;;2272979;61;1008;-85
2021/01/05 00:53:11;34200.00;0.11;59.85;0.00;0.00;0.62;;;;;8.90;1.00;;;;;;2273308;61;1994;-84
2021/01/05 00:55:42;37707.00;0.13;65.92;0.00;0.00;0.62;;;;;8.80;1.00;;;;;;2272917;61;1363;-86
2021/01/05 00:58:25;233555.00;0.78;403.66;19068.00;0.06;33.66;;;;;8.90;1.00;;;;;;2273005;61;976;-84
2021/01/05 01:03:56;105837.00;0.35;183.65;0.00;0.00;0.62;;;;;9.20;1.00;;;;;;2264855;61;1146;-84
2021/01/05 01:06:28;89523.00;0.30;155.48;0.00;0.00;0.62;;;;;9.10;1.00;;;;;;2261344;61;1401;-86
2021/01/05 01:08:56;0.00;0.00;0.62;0.00;0.00;0.62;;;;;9.50;1.00;;;;;;2264519;61;1016;-85
2021/01/05 01:11:26;87249.00;0.29;151.56;0.00;0.00;0.62;;;;;9.50;1.00;;;;;;2260697;61;1918;-83
2021/01/05 01:14:04;169369.00;0.56;293.18;0.00;0.00;0.62;;;;;9.60;1.00;;;;;;2260805;61;1029;-82
2021/01/05 01:16:50;480246.00;1.60;827.82;89396.00;0.30;155.26;;;;;9.40;1.00;;;;;;2250851;61;1304;-83
2021/01/05 01:19:28;492098.00;1.64;848.22;90671.00;0.30;157.47;;;;;9.10;1.00;;;;;;2260860;61;991;-85
2021/01/05 01:25:03;234502.00;0.78;405.29;0.00;0.00;0.62;;;;;7.60;1.00;;;;;;2248777;62;1286;-85
2021/01/05 01:27:32;586166.00;1.95;1010.34;79985.00;0.27;139.01;;;;;7.10;1.00;;;;;;2245448;61;1036;-85
2021/01/05 01:30:20;458410.00;1.53;790.25;98580.00;0.33;171.12;;;;;7.10;1.00;;;;;;2242959;61;984;-86
2021/01/05 01:32:57;429681.00;1.43;740.84;84656.00;0.28;147.08;;;;;7.40;1.00;;;;;;2240750;62;1920;-85
2021/01/05 01:35:34;442179.00;1.47;762.33;116600.00;0.39;202.22;;;;;8.20;1.00;;;;;;2234249;62;1304;-87
2021/01/05 01:38:25;278850.00;0.93;481.56;81673.00;0.27;141.93;;;;;8.10;1.00;;;;;;2240889;62;977;-87
2021/01/05 01:41:03;432562.00;1.44;745.79;87586.00;0.29;152.14;;;;;6.90;1.00;;;;;;2247939;61;1114;-86
2021/01/05 01:43:34;558834.00;1.86;963.19;98700.00;0.33;171.33;;;;;5.70;1.00;;;;;;2252714;61;1149;-85
2021/01/05 01:46:02;426075.00;1.42;734.64;91922.00;0.31;159.63;;;;;5.10;1.00;;;;;;2252772;61;1455;-86
2021/01/05 01:48:36;214753.00;0.72;371.31;86606.00;0.29;150.45;;;;;4.70;1.00;;;;;;2243550;61;1021;-84
2021/01/05 01:51:06;42916.00;0.14;74.93;0.00;0.00;0.62;;;;;4.90;1.00;;;;;;2266340;61;1101;-85
2021/01/05 01:54:07;45657.00;0.15;79.67;0.00;0.00;0.62;;;;;5.30;1.00;;;;;;2272697;61;942;-87
2021/01/05 01:57:18;75993.00;0.25;132.12;0.00;0.00;0.62;;;;;5.30;1.00;;;;;;2272782;61;1482;-84
2021/01/05 02:00:47;69294.00;0.23;120.54;0.00;0.00;0.62;;;;;5.10;1.00;;;;;;2248657;61;1686;-85
2021/01/05 02:03:55;330944.00;1.10;571.11;86788.00;0.29;150.76;;;;;5.30;1.00;;;;;;2232947;62;1002;-83
2021/01/05 02:06:50;645258.00;2.15;1112.43;88576.00;0.30;153.85;;;;;5.00;1.00;;;;;;2220696;62;1424;-84
2021/01/05 02:10:02;510905.00;1.70;880.60;93838.00;0.31;162.93;;;;;4.90;1.00;;;;;;2233590;62;1090;-85
2021/01/05 02:16:09;123716.00;0.41;214.49;0.00;0.00;0.62;;;;;5.20;1.00;;;;;;2216643;62;1326;-84
2021/01/05 02:18:47;104947.00;0.35;182.11;0.00;0.00;0.62;;;;;5.30;1.00;;;;;;2209725;62;1020;-84
2021/01/05 02:21:41;458996.00;1.53;791.26;93454.00;0.31;162.27;;;;;5.40;1.00;;;;;;2206522;62;1046;-84
2021/01/05 02:24:42;507101.00;1.69;874.05;89449.00;0.30;155.36;;;;;5.50;1.00;;;;;;2205780;62;1058;-84
2021/01/05 02:27:15;491586.00;1.64;847.34;92788.00;0.31;161.12;;;;;5.70;1.00;;;;;;2202732;62;978;-84
2021/01/05 02:29:57;400344.00;1.33;690.40;68259.00;0.23;118.75;;;;;6.40;1.00;;;;;;2205745;62;1049;-87
2021/01/05 02:32:39;658283.00;2.19;1134.97;95337.00;0.32;165.52;;;;;6.60;1.00;;;;;;2205748;62;2015;-86
2021/01/05 02:39:14;308759.00;1.03;532.98;0.00;0.00;0.62;;;;;6.20;1.00;;;;;;2205788;63;917;-86
2021/01/05 02:42:02;183189.00;0.61;316.98;0.00;0.00;0.62;;;;;6.10;1.00;;;;;;2203809;62;1186;-84
2021/01/05 02:44:50;409481.00;1.36;706.10;85323.00;0.28;148.23;;;;;5.50;1.00;;;;;;2213552;62;1112;-85
2021/01/05 02:47:51;324464.00;1.08;559.97;88017.00;0.29;152.88;;;;;6.20;1.00;;;;;;2205767;63;1068;-84
2021/01/05 02:51:10;455723.00;1.52;785.63;92857.00;0.31;161.24;;;;;6.50;1.00;;;;;;2238390;62;1059;-83
2021/01/05 02:57:32;207794.00;0.69;359.34;0.00;0.00;0.62;;;;;8.60;1.00;;;;;;2240385;62;1381;-86
2021/01/05 03:00:54;583279.00;1.94;1005.36;92438.00;0.31;160.52;;;;;9.30;1.00;;;;;;2243170;62;1437;-87
2021/01/05 03:03:44;227313.00;0.76;392.93;92046.00;0.31;159.84;;;;;9.70;1.00;;;;;;2234136;62;972;-82
2021/01/05 03:06:45;138540.00;0.46;240.05;0.00;0.00;0.62;;;;;10.00;1.00;;;;;;2233928;62;1397;-82
2021/01/05 03:09:55;391790.00;1.31;675.69;95432.00;0.32;165.69;;;;;10.10;1.00;;;;;;2237298;62;1025;-84
2021/01/05 03:12:55;315393.00;1.05;544.38;102705.00;0.34;178.24;;;;;10.40;1.00;;;;;;2237254;62;1915;-83
2021/01/05 03:15:53;265441.00;0.88;458.50;90486.00;0.30;157.15;;;;;10.30;1.00;;;;;;2246182;61;1399;-82
2021/01/05 03:18:45;36521.00;0.12;63.87;0.00;0.00;0.62;;;;;9.50;1.00;;;;;;2252401;61;1056;-84
2021/01/05 03:21:35;260678.00;0.87;450.31;96074.00;0.32;166.79;;;;;9.80;1.00;;;;;;2245906;61;1023;-83
2021/01/05 03:24:15;321794.00;1.07;555.38;85046.00;0.28;147.75;;;;;10.10;1.00;;;;;;2250766;61;1045;-83
2021/01/05 03:26:50;490991.00;1.64;846.31;83401.00;0.28;144.91;;;;;9.80;1.00;;;;;;2247742;61;1459;-84
2021/01/05 03:29:21;462670.00;1.54;797.58;97172.00;0.32;168.69;;;;;9.40;1.00;;;;;;2265119;61;1132;-83
2021/01/05 03:32:12;267438.00;0.89;461.94;79536.00;0.27;138.24;;;;;9.10;1.00;;;;;;2261811;61;1911;-83
2021/01/05 03:34:47;302995.00;1.01;523.07;98380.00;0.33;170.78;;;;;8.90;1.00;;;;;;2260344;61;1423;-82
2021/01/05 03:37:20;425627.00;1.42;733.87;88071.00;0.29;152.98;;;;;8.50;1.00;;;;;;2255345;61;950;-82
2021/01/05 03:39:49;123577200.00;411.92;76454832.00;83697.00;0.28;145.42;;;;;8.90;1.00;;;;;;2253047;61;1039;-83
2021/01/05 03:42:21;234978.00;0.78;406.11;86474.00;0.29;150.22;;;;;8.60;1.00;;;;;;2256420;61;1081;-83
2021/01/05 03:44:55;41637.00;0.14;72.72;0.00;0.00;0.62;;;;;8.80;1.00;;;;;;2256405;61;1425;-83
2021/01/05 03:47:32;53784.00;0.18;93.73;0.00;0.00;0.62;;;;;9.30;1.00;;;;;;2249749;61;1046;-82
2021/01/05 03:50:04;48437.00;0.16;84.48;0.00;0.00;0.62;;;;;9.10;1.00;;;;;;2256357;61;1074;-82
2021/01/05 03:52:37;26074.00;0.09;45.79;0.00;0.00;0.62;;;;;9.20;1.00;;;;;;2253262;61;1908;-82
2021/01/05 03:55:18;62773.00;0.21;109.27;0.00;0.00;0.62;;;;;9.10;1.00;;;;;;2265502;61;1483;-82
2021/01/05 03:58:06;95696.00;0.32;166.14;0.00;0.00;0.62;;;;;8.70;1.00;;;;;;2272368;61;949;-83
2021/01/05 04:00:43;15131.00;0.05;26.84;0.00;0.00;0.62;;;;;8.30;1.00;;;;;;2265738;61;1161;-84
2021/01/05 04:03:23;97150.00;0.32;168.65;0.00;0.00;0.62;;;;;7.40;1.00;;;;;;2272440;61;1048;-83
2021/01/05 04:06:07;40191.00;0.13;70.22;0.00;0.00;0.62;;;;;7.70;1.00;;;;;;2265700;61;1423;-86
2021/01/05 04:08:46;77928.00;0.26;135.46;0.00;0.00;0.62;;;;;7.40;1.00;;;;;;2265646;61;956;-82
2021/01/05 04:11:20;27438.00;0.09;48.15;0.00;0.00;0.62;;;;;6.80;1.00;;;;;;2272387;61;997;-84
2021/01/05 04:13:55;92424.00;0.31;160.49;0.00;0.00;0.62;;;;;6.00;1.00;;;;;;2265708;61;962;-83
2021/01/05 04:16:29;0.00;0.00;0.62;0.00;0.00;0.62;;;;;6.60;1.00;;;;;;2265711;61;1401;-84
2021/01/05 04:19:00;55220.00;0.18;96.21;0.00;0.00;0.62;;;;;7.30;1.00;;;;;;2269920;61;982;-84
2021/01/05 04:21:32;6724.00;0.02;12.27;0.00;0.00;0.62;;;;;7.80;1.00;;;;;;2273518;61;970;-83
2021/01/05 04:24:25;35628.00;0.12;62.32;0.00;0.00;0.62;;;;;8.20;1.00;;;;;;2273544;61;1017;-83
2021/01/05 04:26:58;191208.00;0.64;330.79;0.00;0.00;0.62;;;;;8.70;1.00;;;;;;2273043;61;1480;-83
2021/01/05 04:29:43;39854.00;0.13;69.64;0.00;0.00;0.62;;;;;9.00;1.00;;;;;;2273097;61;975;-83
2021/01/05 04:32:15;10577.00;0.04;18.95;0.00;0.00;0.62;;;;;9.40;1.00;;;;;;2273458;61;1981;-84
2021/01/05 04:34:46;125266.00;0.42;217.17;0.00;0.00;0.62;;;;;9.00;1.00;;;;;;2273047;61;1339;-83
2021/01/05 04:37:21;32583.00;0.11;57.05;0.00;0.00;0.62;;;;;8.90;1.00;;;;;;2273203;61;1104;-85
2021/01/05 04:39:58;64308.00;0.21;111.92;0.00;0.00;0.62;;;;;8.70;1.00;;;;;;2273082;61;1004;-84
2021/01/05 04:42:37;111228.00;0.37;192.95;0.00;0.00;0.62;;;;;8.10;1.00;;;;;;2273089;61;1006;-82
2021/01/05 04:45:15;67523.00;0.23;117.48;0.00;0.00;0.62;;;;;6.90;1.00;;;;;;2272993;61;1469;-83
2021/01/05 04:47:59;68106.00;0.23;118.49;0.00;0.00;0.62;;;;;6.70;1.00;;;;;;2273422;61;1149;-83
2021/01/05 04:53:49;52351.00;0.17;91.25;0.00;0.00;0.62;;;;;6.20;1.00;;;;;;2264788;61;2014;-85
2021/01/05 04:56:44;53732.00;0.18;93.64;0.00;0.00;0.62;;;;;6.00;1.00;;;;;;2261457;61;1532;-86
2021/01/05 04:59:17;179937.00;0.60;311.38;0.00;0.00;0.62;;;;;6.00;1.00;;;;;;2261491;61;1165;-86
2021/01/05 05:01:59;65441.00;0.22;113.88;0.00;0.00;0.62;;;;;6.30;1.00;;;;;;2264790;61;1233;-85
2021/01/05 05:04:39;67101.00;0.22;116.75;0.00;0.00;0.62;;;;;6.50;1.00;;;;;;2261363;61;1233;-83
2021/01/05 05:07:30;57192.00;0.19;99.62;0.00;0.00;0.62;;;;;6.40;1.00;;;;;;2258186;61;1036;-85
2021/01/05 05:10:15;122931.00;0.41;213.14;0.00;0.00;0.62;;;;;6.10;1.00;;;;;;2264711;61;1109;-84
2021/01/05 05:13:13;15518.00;0.05;27.51;0.00;0.00;0.62;;;;;6.10;1.00;;;;;;2272495;61;1998;-86
2021/01/05 05:16:02;62183.00;0.21;108.25;0.00;0.00;0.62;;;;;7.00;1.00;;;;;;2275780;61;1368;-87
2021/01/05 05:18:44;1626.00;0.01;3.44;0.00;0.00;0.62;;;;;7.90;1.00;;;;;;2272764;61;1019;-87
2021/01/05 05:21:39;117220.00;0.39;203.29;0.00;0.00;0.62;;;;;8.50;1.00;;;;;;2275829;61;1181;-87
2021/01/05 05:24:29;91058.00;0.30;158.13;0.00;0.00;0.62;;;;;9.00;1.00;;;;;;2272914;61;1212;-87
2021/01/05 05:27:02;96055.00;0.32;166.76;0.00;0.00;0.62;;;;;9.30;1.00;;;;;;2272644;61;1347;-85
2021/01/05 05:29:46;54439.00;0.18;94.86;0.00;0.00;0.62;;;;;9.40;1.00;;;;;;2273749;61;1818;-84
2021/01/05 05:32:40;118728.00;0.40;205.89;0.00;0.00;0.62;;;;;9.00;1.00;;;;;;2272869;61;2014;-84
2021/01/05 05:35:59;263568.00;0.88;455.28;0.00;0.00;0.62;;;;;8.10;1.00;;;;;;2272905;61;1365;-84
2021/01/05 05:38:56;20747.00;0.07;36.56;0.00;0.00;0.62;;;;;8.10;1.00;;;;;;2254853;61;1040;-84
2021/01/05 05:44:31;40993.00;0.14;71.61;0.00;0.00;0.62;;;;;7.20;1.00;;;;;;2264293;61;1073;-83
2021/01/05 05:47:17;146642.00;0.49;254.02;0.00;0.00;0.62;;;;;7.50;1.00;;;;;;2254829;61;1457;-85
2021/01/05 05:50:06;117874.00;0.39;204.42;0.00;0.00;0.62;;;;;7.00;1.00;;;;;;2258081;61;967;-84
2021/01/05 05:52:41;59252.00;0.20;103.18;0.00;0.00;0.62;;;;;6.40;1.00;;;;;;2261341;61;1920;-84
2021/01/05 05:55:34;45841.00;0.15;79.99;0.00;0.00;0.62;;;;;6.30;1.00;;;;;;2264572;61;1287;-85
2021/01/05 05:58:15;107844.00;0.36;187.11;7930.00;0.03;14.36;;;;;6.70;1.00;;;;;;2264758;61;1002;-85
2021/01/05 06:00:52;18671.00;0.06;32.97;0.00;0.00;0.62;;;;;7.20;1.00;;;;;;2258099;61;974;-86
2021/01/05 06:03:26;82910.00;0.28;144.06;0.00;0.00;0.62;;;;;7.60;1.00;;;;;;2264660;61;1119;-86
2021/01/05 06:05:56;0.00;0.00;0.62;0.00;0.00;0.62;;;;;8.10;1.00;;;;;;2254614;61;1362;-87
2021/01/05 06:08:26;186607.00;0.62;322.87;0.00;0.00;0.62;;;;;8.00;1.00;;;;;;2263981;61;1170;-86
2021/01/05 06:11:02;177929.00;0.59;307.92;0.00;0.00;0.62;;;;;8.00;1.00;;;;;;2264250;61;1093;-87
2021/01/05 06:13:31;128109.00;0.43;222.07;0.00;0.00;0.62;;;;;8.60;1.00;;;;;;2262164;61;2017;-87
2021/01/05 06:16:06;23703.00;0.08;41.68;0.00;0.00;0.62;;;;;9.00;1.00;;;;;;2272270;61;1297;-87
2021/01/05 06:18:41;35747.00;0.12;62.53;0.00;0.00;0.62;;;;;9.10;1.00;;;;;;2272781;61;1199;-87
2021/01/05 06:21:11;62065.00;0.21;108.05;0.00;0.00;0.62;;;;;9.80;1.00;;;;;;2272732;61;1195;-87
2021/01/05 06:23:48;70404.00;0.23;122.46;0.00;0.00;0.62;;;;;10.20;1.00;;;;;;2268972;61;1015;-87
2021/01/05 06:26:21;0.00;0.00;0.62;0.00;0.00;0.62;;;;;10.50;1.00;;;;;;2272167;61;1428;-87
2021/01/05 06:28:51;169840.00;0.57;293.99;0.00;0.00;0.62;;;;;10.20;1.00;;;;;;2272297;61;1064;-87
2021/01/05 06:31:25;112322.00;0.37;194.84;0.00;0.00;0.62;;;;;9.70;1.00;;;;;;2272294;61;1034;-87
2021/01/05 06:33:55;208644.00;0.70;360.80;0.00;0.00;0.62;;;;;9.80;1.00;;;;;;2272162;61;2017;-85
2021/01/05 06:36:22;7266.00;0.02;13.21;0.00;0.00;0.62;;;;;9.70;1.00;;;;;;2265725;61;1360;-87
2021/01/05 06:39:03;75441.00;0.25;131.16;0.00;0.00;0.62;;;;;9.60;1.00;;;;;;2265838;61;1009;-87
2021/01/05 06:41:39;20261.00;0.07;35.72;0.00;0.00;0.62;;;;;9.80;1.00;;;;;;2265633;61;941;-87
2021/01/05 06:44:10;117268.00;0.39;203.37;0.00;0.00;0.62;;;;;10.10;1.00;;;;;;2265666;61;1133;-88
2021/01/05 06:46:42;48802.00;0.16;85.11;0.00;0.00;0.62;;;;;10.50;1.00;;;;;;2272097;61;1465;-87
2021/01/05 06:49:16;18808.00;0.06;33.21;0.00;0.00;0.62;;;;;10.50;1.00;;;;;;2271883;61;1049;-87
2021/01/05 06:51:46;27063.00;0.09;47.50;0.00;0.00;0.62;;;;;10.70;1.00;;;;;;2272153;61;1998;-88
2021/01/05 06:54:23;139359.00;0.46;241.47;0.00;0.00;0.62;;;;;10.60;1.00;;;;;;2272241;61;1177;-87
2021/01/05 06:56:53;89283.00;0.30;155.07;0.00;0.00;0.62;;;;;10.20;1.00;;;;;;2265496;61;1374;-87
2021/01/05 06:59:37;19507.00;0.07;34.42;0.00;0.00;0.62;;;;;9.70;1.00;;;;;;2272248;61;1172;-87
2021/01/05 07:02:15;185769.00;0.62;321.42;9097.00;0.03;16.38;;;;;10.10;1.00;;;;;;2272150;61;1019;-87
2021/01/05 07:04:44;55626.00;0.19;96.91;0.00;0.00;0.62;;;;;10.60;1.00;;;;;;2272155;61;1342;-86
2021/01/05 07:07:12;131938.00;0.44;228.67;0.00;0.00;0.62;;;;;10.80;1.00;;;;;;2272392;61;1093;-87
2021/01/05 07:09:46;38884.00;0.13;67.96;0.00;0.00;0.62;;;;;11.00;1.00;;;;;;2268876;61;973;-87
2021/01/05 07:12:17;83848.00;0.28;145.68;0.00;0.00;0.62;;;;;10.90;1.00;;;;;;2272323;61;1997;-87
2021/01/05 07:15:00;52629.00;0.18;91.73;0.00;0.00;0.62;;;;;10.60;1.00;;;;;;2272346;61;1351;-86
2021/01/05 07:17:32;20122.00;0.07;35.48;0.00;0.00;0.62;;;;;10.80;1.00;;;;;;2272507;61;1077;-87
2021/01/05 07:20:10;53757.00;0.18;93.68;0.00;0.00;0.62;;;;;10.70;1.00;;;;;;2271943;61;1014;-87
2021/01/05 07:22:40;0.00;0.00;0.62;0.00;0.00;0.62;;;;;10.40;1.00;;;;;;2272163;61;1148;-87
2021/01/05 07:25:15;139021.00;0.46;240.88;16486.00;0.05;29.18;;;;;10.70;1.00;;;;;;2271914;61;1499;-87
2021/01/05 07:27:46;50398.00;0.17;87.87;0.00;0.00;0.62;;;;;10.90;1.00;;;;;;2271865;61;1045;-87
2021/01/05 07:30:23;143718.00;0.48;248.98;0.00;0.00;0.62;;;;;11.10;1.00;;;;;;2268799;61;1267;-87
2021/01/05 07:33:00;60257.00;0.20;104.92;0.00;0.00;0.62;;;;;11.20;1.00;;;;;;2272577;61;1989;-87
2021/01/05 07:35:39;147079.00;0.49;254.77;0.00;0.00;0.62;;;;;11.00;1.00;;;;;;2271983;61;1403;-87
2021/01/05 07:38:12;174871.00;0.58;302.66;0.00;0.00;0.62;;;;;11.10;1.00;;;;;;2268884;61;996;-87
2021/01/05 07:40:47;122174.00;0.41;211.83;0.00;0.00;0.62;;;;;11.30;1.00;;;;;;2272012;61;1192;-87
2021/01/05 07:43:21;72882.00;0.24;126.74;0.00;0.00;0.62;;;;;11.40;1.00;;;;;;2271325;61;1089;-87
2021/01/05 07:45:51;92581.00;0.31;160.76;0.00;0.00;0.62;;;;;11.50;1.00;;;;;;2271507;61;1441;-87
2021/01/05 07:48:21;333953.00;1.11;576.28;28568.00;0.10;50.10;;;;;11.30;1.00;;;;;;2271717;61;1141;-87
2021/01/05 07:50:52;296328.00;0.99;511.61;0.00;0.00;0.62;;;;;11.00;1.00;;;;;;2272740;61;1135;-87
2021/01/05 07:53:22;281202.00;0.94;485.60;0.00;0.00;0.62;;;;;10.50;1.00;;;;;;2272758;61;1917;-88
2021/01/05 07:55:52;306667.00;1.02;529.38;0.00;0.00;0.62;;;;;10.20;1.00;;;;;;2269596;61;1417;-87
2021/01/05 08:01:20;234007.00;0.78;404.44;0.00;0.00;0.62;;;;;9.20;1.00;;;;;;2264863;61;1018;-86
2021/01/05 08:03:52;5716.00;0.02;10.53;0.00;0.00;0.62;;;;;9.10;1.00;;;;;;2261483;61;1236;-87
2021/01/05 08:06:26;0.00;0.00;0.62;0.00;0.00;0.62;;;;;9.30;1.00;;;;;;2264824;61;1468;-88
2021/01/05 08:09:03;78919.00;0.26;137.17;0.00;0.00;0.62;;;;;9.70;1.00;;;;;;2261576;61;1109;-87
2021/01/05 08:19:47;0.00;0.00;0.62;0.00;0.00;0.62;;;;;10.10;1.00;;;;;;2269313;61;1864;-87
2021/01/05 08:22:22;278665.00;0.93;481.24;42814.00;0.14;74.76;;;;;9.70;1.00;;;;;;2274145;61;1385;-87
2021/01/05 08:24:57;19859.00;0.07;35.03;0.00;0.00;0.62;;;;;9.60;1.00;;;;;;2260111;61;1446;-87
2021/01/05 08:27:26;57702.00;0.19;100.50;0.00;0.00;0.62;;;;;9.50;1.00;;;;;;2260141;61;1208;-87
2021/01/05 08:30:03;24777.00;0.08;43.54;0.00;0.00;0.62;;;;;9.40;1.00;;;;;;2259904;61;1120;-87
2021/01/05 08:32:39;73666.00;0.25;128.09;0.00;0.00;0.62;;;;;9.30;1.00;;;;;;2255853;61;2003;-87
2021/01/05 08:35:12;51856.00;0.17;90.40;0.00;0.00;0.62;;;;;9.20;1.00;;;;;;2252503;61;1421;-87
2021/01/05 08:37:44;157989.00;0.53;273.57;0.00;0.00;0.62;;;;;9.70;1.00;;;;;;2255286;61;1207;-87
2021/01/05 08:40:20;47272.00;0.16;82.47;0.00;0.00;0.62;;;;;9.90;1.00;;;;;;2254856;61;1790;-87
2021/01/05 08:42:47;140705.00;0.47;243.79;0.00;0.00;0.62;;;;;10.10;1.00;;;;;;2260943;61;1094;-87
2021/01/05 08:45:18;132950.00;0.44;230.42;0.00;0.00;0.62;;;;;10.30;1.00;;;;;;2265098;61;1316;-87
2021/01/05 08:47:51;30943.00;0.10;54.22;0.00;0.00;0.62;;;;;9.70;1.00;;;;;;2266733;61;1228;-87
2021/01/05 08:50:32;28428.00;0.09;49.86;0.00;0.00;0.62;;;;;9.70;1.00;;;;;;2261816;61;1290;-87
2021/01/05 08:53:08;40704.00;0.14;71.11;0.00;0.00;0.62;;;;;9.80;1.00;;;;;;2264435;61;2051;-87
2021/01/05 08:55:45;2292.00;0.01;4.59;0.00;0.00;0.62;;;;;9.90;1.00;;;;;;2272699;61;1443;-87
2021/01/05 08:58:27;58650.00;0.20;102.14;0.00;0.00;0.62;;;;;9.60;1.00;;;;;;2265552;61;1025;-87
2021/01/05 09:01:03;3565.00;0.01;6.80;0.00;0.00;0.62;;;;;9.60;1.00;;;;;;2262423;61;1153;-87
2021/01/05 09:03:44;89019.00;0.30;154.61;0.00;0.00;0.62;;;;;9.50;1.00;;;;;;2272561;61;1203;-86
2021/01/05 09:06:32;55300.00;0.18;96.35;0.00;0.00;0.62;;;;;9.60;1.00;;;;;;2265571;61;1484;-87
2021/01/05 09:09:03;267277.00;0.89;461.66;89701.00;0.30;155.79;;;;;9.70;1.00;;;;;;2272837;61;1203;-87
2021/01/05 09:11:39;114860.00;0.38;199.22;0.00;0.00;0.62;;;;;9.90;1.00;;;;;;2272957;61;1140;-87
2021/01/05 09:14:10;202035.00;0.67;349.43;82985.00;0.28;144.19;;;;;10.10;1.00;;;;;;2272284;61;1941;-86
2021/01/05 09:16:53;89381.00;0.30;155.24;0.00;0.00;0.62;;;;;9.80;1.00;;;;;;2265510;61;1452;-87
2021/01/05 09:19:28;124895.00;0.42;216.53;0.00;0.00;0.62;;;;;9.80;1.00;;;;;;2272318;61;1097;-86
2021/01/05 09:22:06;92152.00;0.31;160.02;0.00;0.00;0.62;;;;;10.00;1.00;;;;;;2272275;61;1093;-86
2021/01/05 09:24:36;59084.00;0.20;102.89;0.00;0.00;0.62;;;;;10.60;1.00;;;;;;2272382;61;1061;-87
2021/01/05 09:27:18;195604.00;0.65;338.36;0.00;0.00;0.62;;;;;10.30;1.00;;;;;;2265742;61;1573;-85
2021/01/05 09:29:55;;;;;;;;;;;;;;;;;;;;;
2021/01/05 09:32:33;49977.00;0.17;87.15;0.00;0.00;0.62;;;;;9.70;1.00;;;;;;2252151;61;2006;-86
2021/01/05 09:35:05;160263.00;0.53;277.49;0.00;0.00;0.62;;;;;9.30;1.00;;;;;;2252301;61;1454;-87
2021/01/05 09:37:43;53627.00;0.18;93.46;0.00;0.00;0.62;;;;;9.10;1.00;;;;;;2248973;61;1253;-87
2021/01/05 09:40:18;118186.00;0.39;204.95;0.00;0.00;0.62;;;;;9.30;1.00;;;;;;2245797;61;1257;-87
2021/01/05 09:42:45;48220.00;0.16;84.11;0.00;0.00;0.62;;;;;9.80;1.00;;;;;;2252482;61;1152;-86
2021/01/05 09:48:20;42626.00;0.14;74.43;0.00;0.00;0.62;;;;;10.00;1.00;;;;;;2252137;61;1219;-87
2021/01/05 09:51:11;14191.00;0.05;25.21;0.00;0.00;0.62;;;;;10.10;1.00;;;;;;2257752;61;1107;-86
2021/01/05 09:53:52;19050.00;0.06;33.62;0.00;0.00;0.62;;;;;10.30;1.00;;;;;;2261610;61;2003;-87
2021/01/05 09:56:41;35466.00;0.12;62.04;0.00;0.00;0.62;;;;;9.80;1.00;;;;;;2261746;61;1293;-84
2021/01/05 09:59:41;140787.00;0.47;243.93;0.00;0.00;0.62;;;;;9.50;1.00;;;;;;2253719;61;1109;-84
2021/01/05 10:02:13;246159.00;0.82;425.34;88981.00;0.30;154.55;;;;;8.90;1.00;;;;;;2253624;61;1062;-87
2021/01/05 10:04:55;53878.00;0.18;93.89;0.00;0.00;0.62;;;;;8.70;1.00;;;;;;2260311;61;1329;-84
2021/01/05 10:07:31;43879.00;0.15;76.60;0.00;0.00;0.62;;;;;8.50;1.00;;;;;;2253754;61;1105;-84
2021/01/05 10:10:05;224920.00;0.75;388.81;0.00;0.00;0.62;;;;;8.10;1.00;;;;;;2253748;61;993;-84
2021/01/05 10:12:40;264073.00;0.88;456.15;0.00;0.00;0.62;;;;;7.80;1.00;;;;;;2262884;61;2010;-83
2021/01/05 10:15:11;74329.00;0.25;129.24;0.00;0.00;0.62;;;;;7.70;1.00;;;;;;2257482;61;1369;-86
2021/01/05 10:17:44;78484.00;0.26;136.42;0.00;0.00;0.62;;;;;7.60;1.00;;;;;;2270668;61;1074;-86
2021/01/05 10:20:28;73251.00;0.24;127.38;0.00;0.00;0.62;;;;;7.60;1.00;;;;;;2265416;61;1081;-85
2021/01/05 10:23:05;175600.00;0.59;303.91;0.00;0.00;0.62;;;;;7.50;1.00;;;;;;2268745;61;1093;-86
2021/01/05 10:25:35;1240461.00;4.13;2163.55;48177.00;0.16;84.03;;;;;7.20;1.00;;;;;;2272660;61;1394;-87
2021/01/05 10:28:06;88350.00;0.29;153.46;0.00;0.00;0.62;;;;;7.10;1.00;;;;;;2267941;61;1280;-86
2021/01/05 10:30:54;88181.00;0.29;153.17;0.00;0.00;0.62;;;;;7.20;1.00;;;;;;2267953;61;1137;-87
2021/01/05 10:33:24;105382.00;0.35;182.86;0.00;0.00;0.62;;;;;7.30;1.00;;;;;;2264549;61;1927;-87
2021/01/05 10:36:05;154211.00;0.51;267.06;0.00;0.00;0.62;;;;;7.40;1.00;;;;;;2267856;61;1427;-86
2021/01/05 10:38:35;57272.00;0.19;99.76;0.00;0.00;0.62;;;;;7.20;1.00;;;;;;2267886;61;1033;-87
2021/01/05 10:41:03;25650.00;0.09;45.05;0.00;0.00;0.62;;;;;7.10;1.00;;;;;;2264681;61;1077;-87
2021/01/05 10:43:31;65342.00;0.22;113.71;0.00;0.00;0.62;;;;;7.30;1.00;;;;;;2267658;61;969;-88
2021/01/05 10:46:05;82231.00;0.27;142.89;0.00;0.00;0.62;;;;;7.70;1.00;;;;;;2260969;61;1342;-88
2021/01/05 10:48:33;133841.00;0.45;231.95;0.00;0.00;0.62;;;;;7.50;1.00;;;;;;2263817;61;1208;-87
2021/01/05 10:51:05;85120.00;0.28;147.88;0.00;0.00;0.62;;;;;7.60;1.00;;;;;;2257131;61;1189;-88
2021/01/05 10:53:35;142670.00;0.48;247.17;0.00;0.00;0.62;;;;;8.10;1.00;;;;;;2259975;61;2010;-88
2021/01/05 10:56:14;157072.00;0.52;271.99;0.00;0.00;0.62;;;;;8.20;1.00;;;;;;2253369;61;1331;-88
2021/01/05 10:58:44;70387.00;0.23;122.43;0.00;0.00;0.62;;;;;7.90;1.00;;;;;;2256617;61;1029;-87
2021/01/05 11:01:17;60680.00;0.20;105.65;0.00;0.00;0.62;;;;;7.70;1.00;;;;;;2263469;61;1062;-87
2021/01/05 11:03:47;237414.00;0.79;410.30;17561.00;0.06;31.05;;;;;7.20;1.00;;;;;;2260040;61;1057;-86
2021/01/05 11:06:25;304892.00;1.02;526.33;0.00;0.00;0.62;;;;;7.10;1.00;;;;;;2254873;61;1232;-85
2021/01/05 11:08:59;154743.00;0.52;267.98;0.00;0.00;0.62;;;;;6.80;1.00;;;;;;2264132;61;1140;-85
2021/01/05 11:11:29;33957.00;0.11;59.43;0.00;0.00;0.62;;;;;6.90;1.00;;;;;;2260445;61;1128;-88
2021/01/05 11:14:00;102381.00;0.34;177.68;0.00;0.00;0.62;;;;;6.70;1.00;;;;;;2263927;61;1928;-87
2021/01/05 11:16:35;132032.00;0.44;228.83;0.00;0.00;0.62;;;;;6.50;1.00;;;;;;2257203;61;1456;-87
2021/01/05 11:19:07;100587.00;0.34;174.59;0.00;0.00;0.62;;;;;6.40;1.00;;;;;;2263483;61;998;-87
2021/01/05 11:21:42;146446.00;0.49;253.68;0.00;0.00;0.62;;;;;6.80;1.00;;;;;;2260584;61;1168;-87
2021/01/05 11:24:13;135360.00;0.45;234.57;0.00;0.00;0.62;;;;;7.20;1.00;;;;;;2261937;61;1189;-87
2021/01/05 11:27:00;287965.00;0.96;497.23;0.00;0.00;0.62;;;;;7.10;1.00;;;;;;2272184;61;1334;-86
2021/01/05 11:29:36;201873.00;0.67;349.15;0.00;0.00;0.62;;;;;7.40;1.00;;;;;;2272559;61;1184;-84
2021/01/05 11:32:19;36397.00;0.12;63.65;0.00;0.00;0.62;;;;;7.40;1.00;;;;;;2265451;61;1908;-84